Brownings Corner, Kentucky
Current Conditions -  °F | °C
As of 3:22 AM on Friday 24 Oct 2014 (Local Time) from KLUK Reporting Station
Haze Haze  
Wind Chill: 38°   Ceiling: Unl
Heat Index: 38°   Visibility: 1.7mi
Dew Point: 37°   Wind: 0mph
Humidity: 97%   Direction: NA
Pressure: 30.14"   Gusts: NA
Location:  38.6506°N, 84.351°W
Report Text: KLUK 240722Z AUTO 00000KT 1 3/4SM R21L/3000VP6000FT BR CLR 03/03 A3014 RMK AO2 T00330028
Loading
Personal Weather Stations






























Interactive Weather Map
Tropical Storm Tracking
New forecast layout! Learn more

10-Day Weather Forecast

Advertisements
Track Severe Weather on mobile